Time;durP1;ratioP1;P1;durP2;ratioP2;P2;SDS_P1;SDS_P2;PMS_P1;PMS_P2;Temp;Humidity;BMP_temperature;BMP_pressure;BME280_temperature;BME280_humidity;BME280_pressure;Samples;Min_cycle;Max_cycle;Signal;HPM_P1;HPM_P2
2023/01/05 00:01:09;;;;;;;19.05;2.55;;;9.30;99.90;;;;;;5022481;28;20048;-65
2023/01/05 00:03:35;;;;;;;21.88;2.78;;;9.30;99.90;;;;;;5021838;28;20908;-65
2023/01/05 00:06:11;;;;;;;34.03;3.35;;;9.30;99.90;;;;;;5021829;28;20094;-64
2023/01/05 00:08:38;;;;;;;17.70;2.45;;;9.30;99.90;;;;;;5041275;28;20065;-63
2023/01/05 00:22:29;;;;;;;20.02;2.70;;;9.30;99.90;;;;;;5024277;28;20048;-66
2023/01/05 00:25:05;;;;;;;23.08;2.78;;;8.70;99.90;;;;;;5021354;28;20118;-65
2023/01/05 00:27:31;;;;;;;27.40;3.03;;;9.20;99.90;;;;;;5022085;28;20048;-65
2023/01/05 00:29:57;;;;;;;32.70;3.45;;;9.10;99.90;;;;;;4996471;28;20045;-65
2023/01/05 00:32:23;;;;;;;23.25;2.67;;;8.90;99.90;;;;;;5039656;28;20343;-67
2023/01/05 00:34:53;;;;;;;23.05;2.55;;;9.20;99.90;;;;;;5039196;28;20095;-65
2023/01/05 00:37:19;;;;;;;17.42;2.45;;;9.10;99.90;;;;;;5021109;28;20458;-64
2023/01/05 00:39:44;;;;;;;30.02;3.13;;;9.00;99.90;;;;;;5021975;28;20281;-65
2023/01/05 00:42:10;;;;;;;26.75;3.47;;;9.10;99.90;;;;;;5039069;28;20044;-64
2023/01/05 00:44:36;;;;;;;28.33;3.30;;;9.30;99.90;;;;;;5021083;28;20140;-64
2023/01/05 00:47:01;;;;;;;27.73;2.92;;;8.70;99.90;;;;;;5020920;28;20338;-65
2023/01/05 00:49:27;;;;;;;24.88;3.40;;;9.30;99.90;;;;;;5004209;28;20048;-65
2023/01/05 00:51:53;;;;;;;21.05;2.95;;;8.90;99.90;;;;;;5004584;28;20449;-65
2023/01/05 00:54:18;;;;;;;26.00;2.92;;;8.70;99.90;;;;;;5029158;28;20134;-66
2023/01/05 00:56:48;;;;;;;22.88;3.05;;;9.30;99.90;;;;;;5039279;28;20037;-66
2023/01/05 00:59:14;;;;;;;22.95;2.80;;;9.40;99.90;;;;;;5008211;28;20124;-63
2023/01/05 01:01:39;;;;;;;15.57;2.15;;;9.40;99.90;;;;;;5003845;28;20040;-66
2023/01/05 01:04:05;;;;;;;22.27;2.75;;;8.60;99.90;;;;;;5021101;28;20045;-64
2023/01/05 01:06:31;;;;;;;22.42;3.22;;;9.00;99.90;;;;;;5003412;28;20044;-65
2023/01/05 01:08:57;;;;;;;24.75;3.15;;;8.90;99.90;;;;;;5025816;28;20420;-64
2023/01/05 01:11:23;;;;;;;25.23;3.10;;;9.20;99.90;;;;;;5020107;28;20049;-64
2023/01/05 01:13:49;;;;;;;27.05;3.90;;;8.90;99.90;;;;;;5020139;28;20045;-65
2023/01/05 01:16:15;;;;;;;25.40;3.30;;;8.80;99.90;;;;;;5039165;28;20558;-65
2023/01/05 01:18:41;;;;;;;24.98;3.33;;;8.60;99.90;;;;;;5020837;28;20082;-65
2023/01/05 01:21:07;;;;;;;30.35;3.38;;;8.70;99.90;;;;;;5020298;28;20395;-66
2023/01/05 01:23:36;;;;;;;27.55;3.72;;;8.50;99.90;;;;;;5004401;28;20053;-65
2023/01/05 01:26:11;;;;;;;34.60;3.97;;;9.00;99.90;;;;;;5020306;28;20048;-66
2023/01/05 01:28:37;;;;;;;28.05;3.42;;;9.20;99.90;;;;;;5005432;28;20614;-66
2023/01/05 01:31:03;;;;;;;24.17;3.20;;;8.70;99.90;;;;;;5038948;28;20163;-66
2023/01/05 01:33:29;;;;;;;24.00;3.17;;;9.30;99.90;;;;;;5038718;28;20112;-65
2023/01/05 01:35:55;;;;;;;30.52;4.03;;;8.50;99.90;;;;;;5038240;28;20102;-65
2023/01/05 01:38:21;;;;;;;27.40;3.40;;;9.30;99.90;;;;;;5021024;28;20049;-66
2023/01/05 01:40:47;;;;;;;28.92;3.33;;;8.70;99.90;;;;;;5038225;28;20120;-65
2023/01/05 01:43:19;;;;;;;33.60;3.75;;;9.10;99.90;;;;;;5004449;28;20041;-64
2023/01/05 01:45:45;;;;;;;29.67;4.03;;;8.50;99.90;;;;;;5021120;28;20094;-65
2023/01/05 01:48:16;;;;;;;34.30;4.15;;;8.50;99.90;;;;;;5033808;28;20829;-66
2023/01/05 01:50:47;;;;;;;27.20;3.40;;;9.30;99.90;;;;;;5037718;28;20606;-65
2023/01/05 01:53:22;;;;;;;31.25;4.10;;;9.30;99.90;;;;;;5004650;28;20048;-65
2023/01/05 01:55:49;;;;;;;29.48;3.70;;;9.10;99.90;;;;;;5007424;28;20049;-64
2023/01/05 01:58:17;;;;;;;25.90;3.70;;;8.60;99.90;;;;;;5038034;28;20106;-65
2023/01/05 02:00:44;;;;;;;22.63;3.65;;;8.80;99.90;;;;;;5022841;28;20037;-64
2023/01/05 02:03:10;;;;;;;19.00;2.20;;;9.20;99.90;;;;;;5008284;28;20076;-65
2023/01/05 02:05:38;;;;;;;21.90;2.00;;;9.00;99.90;;;;;;5025448;28;20076;-64
2023/01/05 02:08:10;;;;;;;30.30;3.20;;;8.60;99.90;;;;;;5007854;28;20036;-65
2023/01/05 02:11:13;;;;;;;15.55;2.15;;;9.10;99.90;;;;;;5024345;28;20060;-65
2023/01/05 02:14:03;;;;;;;29.67;3.97;;;9.20;99.90;;;;;;5042104;28;20406;-65
2023/01/05 02:17:22;;;;;;;27.55;3.35;;;8.90;99.90;;;;;;5010968;28;20055;-65
2023/01/05 02:20:05;;;;;;;21.77;2.55;;;8.90;99.90;;;;;;5023469;28;20049;-66
2023/01/05 02:22:49;;;;;;;23.33;2.50;;;9.10;99.90;;;;;;5024757;28;20036;-65
2023/01/05 02:25:45;;;;;;;21.92;3.03;;;9.00;99.90;;;;;;5041798;28;20449;-65
2023/01/05 02:28:10;;;;;;;22.33;2.58;;;9.10;99.90;;;;;;5023362;28;20426;-65
2023/01/05 02:30:39;;;;;;;21.35;2.72;;;8.90;99.90;;;;;;5012849;28;20045;-64
2023/01/05 02:33:20;;;;;;;11.60;2.22;;;9.10;99.90;;;;;;5023535;28;20162;-64
2023/01/05 02:35:57;;;;;;;25.27;3.65;;;9.10;99.90;;;;;;5042163;28;20036;-65
2023/01/05 02:38:40;;;;;;;26.67;3.50;;;9.20;99.90;;;;;;5005916;28;20266;-66
2023/01/05 02:41:12;;;;;;;26.95;3.20;;;8.90;99.90;;;;;;5041110;28;20045;-64
2023/01/05 02:43:38;;;;;;;24.85;3.05;;;9.10;99.90;;;;;;5022862;28;20051;-65
2023/01/05 02:46:04;;;;;;;25.42;3.70;;;9.10;99.90;;;;;;5018502;28;20040;-64
2023/01/05 02:48:32;;;;;;;26.40;3.13;;;9.00;99.90;;;;;;5022695;28;20075;-66
2023/01/05 02:51:05;;;;;;;22.90;2.63;;;9.10;99.90;;;;;;5041507;28;20045;-65
2023/01/05 02:53:41;;;;;;;21.25;2.40;;;9.00;99.90;;;;;;5022285;28;20048;-64
2023/01/05 02:56:07;;;;;;;26.73;2.60;;;9.10;99.90;;;;;;5006387;28;20045;-65
2023/01/05 02:58:34;;;;;;;25.20;3.03;;;8.90;99.90;;;;;;5022948;28;20041;-66
2023/01/05 03:01:09;;;;;;;23.65;2.72;;;9.10;99.90;;;;;;5040864;28;20407;-65
2023/01/05 03:03:42;;;;;;;28.50;3.03;;;9.10;99.90;;;;;;5041547;28;20041;-66
2023/01/05 03:06:17;;;;;;;22.50;3.30;;;9.00;99.90;;;;;;5040744;28;20272;-65
2023/01/05 03:08:54;;;;;;;27.08;3.35;;;8.80;99.90;;;;;;5023267;28;20033;-64
2023/01/05 03:14:11;;;;;;;24.42;3.05;;;8.90;99.90;;;;;;5039716;28;20126;-66
2023/01/05 03:16:38;;;;;;;22.63;3.45;;;9.10;99.90;;;;;;5006723;28;20041;-65
2023/01/05 03:35:56;;;;;;;29.20;3.08;;;9.20;99.90;;;;;;5040721;28;20141;-64
2023/01/05 03:38:25;;;;;;;25.05;2.85;;;9.10;99.90;;;;;;5021792;28;20051;-64
2023/01/05 03:40:54;;;;;;;26.58;3.85;;;9.10;99.90;;;;;;5037907;28;20048;-65
2023/01/05 03:43:21;;;;;;;18.95;2.78;;;9.20;99.90;;;;;;5039958;28;20036;-65
2023/01/05 03:45:56;;;;;;;28.85;2.88;;;9.30;99.90;;;;;;5040677;28;20139;-65
2023/01/05 03:48:24;;;;;;;25.60;3.83;;;9.10;99.90;;;;;;5039950;28;20044;-65
2023/01/05 03:50:50;;;;;;;24.00;3.00;;;9.20;99.90;;;;;;5040178;28;20044;-63
2023/01/05 03:53:16;;;;;;;27.80;3.60;;;9.20;99.90;;;;;;5022227;28;20419;-65
2023/01/05 03:55:41;;;;;;;27.33;3.30;;;9.20;99.90;;;;;;5005618;28;20049;-64
2023/01/05 03:58:08;;;;;;;19.00;3.00;;;9.20;99.90;;;;;;5040724;28;20047;-66
2023/01/05 04:00:34;;;;;;;23.50;2.95;;;9.20;99.90;;;;;;5005683;28;20053;-64
2023/01/05 04:02:59;;;;;;;25.85;3.15;;;9.40;99.90;;;;;;5021588;28;20055;-64
2023/01/05 04:05:25;;;;;;;22.83;3.08;;;8.90;99.90;;;;;;5022367;28;20040;-65
2023/01/05 04:07:54;;;;;;;24.27;2.28;;;8.70;99.90;;;;;;4988961;28;20367;-67
2023/01/05 04:10:20;;;;;;;31.73;3.00;;;9.10;99.90;;;;;;5039867;28;20716;-65
2023/01/05 04:12:48;;;;;;;33.05;3.95;;;8.80;99.90;;;;;;5022224;28;21104;-66
2023/01/05 04:15:13;;;;;;;31.20;3.55;;;9.00;99.90;;;;;;4989493;28;20362;-64
2023/01/05 04:17:39;;;;;;;32.55;3.35;;;9.10;99.90;;;;;;5021284;28;20066;-64
2023/01/05 04:20:05;;;;;;;28.75;4.03;;;8.70;99.90;;;;;;4988559;28;20045;-66
2023/01/05 04:22:32;;;;;;;22.48;2.55;;;8.90;99.90;;;;;;5039558;28;20041;-64
2023/01/05 04:24:58;;;;;;;28.02;3.15;;;9.10;99.90;;;;;;5003671;28;20156;-64
2023/01/05 04:27:23;;;;;;;32.45;3.88;;;9.10;99.90;;;;;;5039634;28;20045;-64
2023/01/05 04:29:49;;;;;;;24.38;2.95;;;9.10;99.90;;;;;;5039784;28;20033;-64
2023/01/05 04:32:15;;;;;;;32.92;4.03;;;9.10;99.90;;;;;;5020870;28;20037;-63
2023/01/05 04:34:40;;;;;;;23.67;2.70;;;8.80;99.90;;;;;;5020800;28;20037;-64
2023/01/05 04:37:06;;;;;;;36.80;3.70;;;8.80;99.90;;;;;;5021389;28;20040;-64
2023/01/05 04:39:32;;;;;;;41.47;5.05;;;9.10;99.90;;;;;;5039581;28;20119;-65
2023/01/05 04:41:57;;;;;;;32.13;3.63;;;9.00;99.90;;;;;;5005263;28;20037;-65
2023/01/05 04:44:23;;;;;;;27.27;3.50;;;9.10;99.90;;;;;;5004990;28;20560;-65
2023/01/05 04:46:49;;;;;;;28.67;3.47;;;8.60;99.90;;;;;;5005120;28;20072;-65
2023/01/05 04:49:14;;;;;;;28.52;3.53;;;9.00;99.90;;;;;;5021350;28;20094;-65
2023/01/05 04:51:40;;;;;;;33.08;4.05;;;8.90;99.90;;;;;;5027288;28;20037;-65
2023/01/05 04:54:06;;;;;;;33.20;3.67;;;9.10;99.90;;;;;;5005658;28;20072;-65
2023/01/05 04:56:31;;;;;;;30.45;4.10;;;9.10;99.90;;;;;;5038913;28;20029;-65
2023/01/05 04:58:57;;;;;;;31.00;3.55;;;8.90;99.90;;;;;;5005258;28;20040;-65
2023/01/05 05:01:23;;;;;;;28.13;3.25;;;9.10;99.90;;;;;;5020634;28;20049;-65
2023/01/05 05:03:48;;;;;;;30.00;3.88;;;9.20;99.90;;;;;;5020934;28;20048;-65
2023/01/05 05:06:16;;;;;;;29.55;4.10;;;8.80;99.90;;;;;;5021026;28;20200;-64
2023/01/05 05:08:42;;;;;;;30.30;4.07;;;9.10;99.90;;;;;;5021308;28;20115;-64
2023/01/05 05:11:08;;;;;;;30.85;3.80;;;8.90;99.90;;;;;;5020250;28;20056;-66
2023/01/05 05:13:33;;;;;;;29.27;3.17;;;9.10;99.90;;;;;;5021878;28;20045;-63
2023/01/05 05:15:59;;;;;;;25.90;3.95;;;9.00;99.90;;;;;;5020976;28;20044;-65
2023/01/05 05:18:25;;;;;;;33.50;3.90;;;9.10;99.90;;;;;;5021427;28;20045;-63
2023/01/05 05:20:51;;;;;;;29.23;4.40;;;8.90;99.90;;;;;;4989262;28;20045;-64
2023/01/05 05:23:17;;;;;;;29.20;4.03;;;9.00;99.90;;;;;;5039742;28;20049;-63
2023/01/05 05:25:43;;;;;;;29.60;3.63;;;9.10;99.90;;;;;;5038617;28;20094;-65
2023/01/05 05:28:09;;;;;;;31.88;3.70;;;8.80;99.90;;;;;;5021127;28;20041;-64
2023/01/05 05:30:37;;;;;;;31.30;3.53;;;8.80;99.90;;;;;;5019744;28;20048;-63
2023/01/05 05:33:03;;;;;;;24.77;3.30;;;8.90;99.90;;;;;;5039642;28;20076;-64
2023/01/05 05:35:29;;;;;;;24.13;2.97;;;9.00;99.90;;;;;;5019374;28;20083;-64
2023/01/05 05:37:54;;;;;;;32.08;4.15;;;9.10;99.90;;;;;;5020718;28;20045;-64
2023/01/05 05:40:20;;;;;;;36.35;4.43;;;9.10;99.90;;;;;;5038301;28;20407;-63
2023/01/05 05:42:45;;;;;;;30.75;4.03;;;8.90;99.90;;;;;;5020374;28;20159;-64
2023/01/05 05:45:11;;;;;;;31.15;3.88;;;9.20;99.90;;;;;;5038354;28;20471;-63
2023/01/05 05:47:37;;;;;;;32.78;4.68;;;9.20;99.90;;;;;;5038662;28;20269;-63
2023/01/05 05:50:03;;;;;;;30.42;3.17;;;9.20;99.90;;;;;;5020427;28;20041;-63
2023/01/05 05:52:29;;;;;;;24.90;3.33;;;9.10;99.90;;;;;;5038855;28;20037;-63
2023/01/05 05:54:54;;;;;;;37.28;4.47;;;9.00;99.90;;;;;;5021073;28;20083;-63
2023/01/05 05:57:20;;;;;;;27.05;3.92;;;9.10;99.90;;;;;;5004379;28;20056;-62
2023/01/05 05:59:46;;;;;;;31.90;3.63;;;9.30;99.90;;;;;;5039300;28;20376;-63
2023/01/05 06:02:11;;;;;;;39.45;4.75;;;9.30;99.90;;;;;;5036677;28;20602;-62
2023/01/05 06:04:37;;;;;;;34.53;4.22;;;9.30;99.90;;;;;;5037646;28;20501;-64
2023/01/05 06:07:03;;;;;;;35.38;4.43;;;9.10;99.90;;;;;;5038459;28;20055;-63
2023/01/05 06:09:28;;;;;;;36.92;4.95;;;9.00;99.90;;;;;;5038654;28;20123;-63
2023/01/05 06:11:54;;;;;;;37.13;4.90;;;9.20;99.90;;;;;;5038958;28;20519;-64
2023/01/05 06:14:20;;;;;;;44.13;5.80;;;8.80;99.90;;;;;;5037173;28;20474;-63
2023/01/05 06:16:45;;;;;;;40.10;5.00;;;8.90;99.90;;;;;;5038331;28;20095;-62
2023/01/05 06:19:11;;;;;;;47.13;5.72;;;9.10;99.90;;;;;;5038815;28;20041;-63
2023/01/05 06:21:37;;;;;;;44.85;4.80;;;9.10;99.90;;;;;;5037772;28;20045;-63
2023/01/05 06:24:03;;;;;;;41.72;4.68;;;9.10;99.90;;;;;;5020129;28;20426;-63
2023/01/05 06:26:28;;;;;;;36.38;4.32;;;9.00;99.90;;;;;;5037908;28;20045;-65
2023/01/05 06:28:54;;;;;;;31.58;3.15;;;9.00;99.90;;;;;;5020423;28;20052;-64
2023/01/05 06:31:19;;;;;;;38.25;4.25;;;8.70;99.90;;;;;;5002288;28;20052;-64
2023/01/05 06:33:45;;;;;;;37.28;4.40;;;8.80;99.90;;;;;;5020896;28;20060;-64
2023/01/05 06:36:11;;;;;;;35.67;3.90;;;9.00;99.90;;;;;;5007468;28;20075;-64
2023/01/05 06:38:36;;;;;;;34.85;5.28;;;8.80;99.90;;;;;;5037653;28;20043;-62
2023/01/05 06:41:02;;;;;;;35.85;4.88;;;9.20;99.90;;;;;;5021062;28;20053;-63
2023/01/05 06:43:28;;;;;;;32.53;4.10;;;8.70;99.90;;;;;;5032363;28;20060;-63
2023/01/05 06:45:53;;;;;;;35.67;4.82;;;9.10;99.90;;;;;;5022251;28;20116;-63
2023/01/05 06:48:19;;;;;;;38.08;4.60;;;9.00;99.90;;;;;;5023793;28;20045;-63
2023/01/05 06:50:45;;;;;;;37.75;4.68;;;9.20;99.90;;;;;;5040448;28;20037;-63
2023/01/05 06:53:10;;;;;;;43.10;4.75;;;8.50;99.90;;;;;;5040842;28;20752;-63
2023/01/05 06:55:36;;;;;;;49.40;6.18;;;8.50;99.90;;;;;;5023552;28;20778;-62
2023/01/05 06:58:02;;;;;;;45.45;5.65;;;9.10;99.90;;;;;;5041378;28;20044;-63
2023/01/05 07:00:28;;;;;;;48.20;5.25;;;8.60;99.90;;;;;;5024064;28;20040;-63
2023/01/05 07:02:54;;;;;;;58.05;6.13;;;8.90;99.90;;;;;;5042498;28;20399;-63
2023/01/05 07:05:19;;;;;;;46.05;5.85;;;8.40;99.90;;;;;;5007994;28;20059;-63
2023/01/05 07:07:45;;;;;;;53.17;5.55;;;9.20;99.90;;;;;;5023808;28;20072;-63
2023/01/05 07:10:11;;;;;;;54.10;6.45;;;9.10;99.90;;;;;;5023290;28;20068;-64
2023/01/05 07:12:36;;;;;;;52.03;6.35;;;8.30;99.90;;;;;;5041850;28;20052;-63
2023/01/05 07:15:04;;;;;;;49.70;5.63;;;8.40;99.90;;;;;;5041540;28;20077;-62
2023/01/05 07:17:30;;;;;;;40.03;4.68;;;8.40;99.90;;;;;;5023296;28;20036;-62
2023/01/05 07:19:56;;;;;;;32.13;3.10;;;8.80;99.90;;;;;;5040317;28;20039;-63
2023/01/05 07:22:21;;;;;;;21.35;2.40;;;8.80;99.90;;;;;;5044557;28;20045;-62
2023/01/05 07:24:47;;;;;;;26.58;3.05;;;8.10;99.90;;;;;;5027937;28;20573;-63
2023/01/05 07:27:13;;;;;;;30.70;3.15;;;8.20;99.90;;;;;;5041551;28;20041;-63
2023/01/05 07:29:38;;;;;;;28.50;3.47;;;8.20;99.90;;;;;;5042107;28;20037;-63
2023/01/05 07:32:05;;;;;;;25.65;3.75;;;9.00;99.90;;;;;;5039886;28;20046;-63
2023/01/05 07:34:31;;;;;;;24.55;2.97;;;8.30;99.90;;;;;;5021619;28;20514;-62
2023/01/05 07:36:57;;;;;;;27.52;3.38;;;8.30;99.90;;;;;;5041096;28;20037;-63
2023/01/05 07:39:22;;;;;;;23.67;3.47;;;8.90;99.90;;;;;;5023572;28;20037;-62
2023/01/05 07:41:48;;;;;;;26.77;3.58;;;8.50;99.90;;;;;;5043152;28;20068;-62
2023/01/05 07:44:14;;;;;;;18.90;2.53;;;9.00;99.90;;;;;;5043225;28;20376;-64
2023/01/05 07:46:39;;;;;;;19.45;2.33;;;8.30;99.90;;;;;;5025930;28;20037;-63
2023/01/05 07:49:05;;;;;;;25.00;2.25;;;8.10;99.90;;;;;;5024390;28;20083;-66
2023/01/05 07:51:31;;;;;;;20.27;2.22;;;8.80;99.90;;;;;;5041488;28;20044;-64
2023/01/05 07:53:56;;;;;;;25.80;2.90;;;8.10;99.90;;;;;;5041060;28;20554;-63
2023/01/05 07:56:22;;;;;;;33.42;3.20;;;8.80;99.90;;;;;;5042378;28;20664;-63
2023/01/05 07:58:48;;;;;;;25.90;2.70;;;8.90;99.90;;;;;;5041911;28;20044;-63
2023/01/05 08:01:17;;;;;;;26.90;3.08;;;8.40;99.90;;;;;;5024131;28;20517;-64
2023/01/05 08:03:43;;;;;;;19.75;2.67;;;8.50;99.90;;;;;;5024224;28;20131;-63
2023/01/05 08:06:11;;;;;;;11.43;0.90;;;8.20;99.90;;;;;;5023755;28;20119;-64
2023/01/05 08:08:37;;;;;;;11.63;1.15;;;8.50;99.90;;;;;;5038547;28;20499;-64
2023/01/05 08:11:07;;;;;;;11.30;0.82;;;8.40;99.90;;;;;;5039735;28;20651;-66
2023/01/05 08:16:18;;;;;;;5.82;0.30;;;7.90;99.90;;;;;;5038515;28;20119;-63
2023/01/05 08:18:45;;;;;;;7.22;0.40;;;7.90;99.90;;;;;;5038344;28;20166;-64
2023/01/05 08:21:11;;;;;;;8.50;0.43;;;8.00;99.90;;;;;;5039489;28;20144;-64
2023/01/05 08:23:38;;;;;;;6.22;0.30;;;8.00;99.90;;;;;;5040388;28;20037;-63
2023/01/05 08:26:12;;;;;;;3.17;0.20;;;7.90;99.90;;;;;;5038587;28;20029;-63
2023/01/05 08:28:38;;;;;;;6.15;0.30;;;8.40;99.90;;;;;;5040458;28;20183;-63
2023/01/05 08:31:07;;;;;;;2.20;0.25;;;8.40;99.90;;;;;;5038889;28;20056;-63
2023/01/05 08:33:33;;;;;;;4.45;0.22;;;7.80;99.90;;;;;;5021512;28;20049;-64
2023/01/05 08:35:59;;;;;;;4.45;0.38;;;7.70;99.90;;;;;;5039535;28;20037;-64
2023/01/05 08:38:25;;;;;;;4.85;0.70;;;8.20;99.90;;;;;;5038954;28;20106;-64
2023/01/05 08:40:51;;;;;;;4.57;0.50;;;8.10;99.90;;;;;;5040341;28;20049;-63
2023/01/05 08:43:17;;;;;;;4.57;0.50;;;8.00;99.90;;;;;;5021623;28;20037;-64
2023/01/05 08:45:47;;;;;;;6.95;0.45;;;7.90;99.90;;;;;;5038901;28;20056;-64
2023/01/05 08:48:13;;;;;;;7.10;0.43;;;8.30;99.90;;;;;;5039827;28;20447;-65
2023/01/05 08:50:39;;;;;;;7.93;0.40;;;8.30;99.90;;;;;;5038355;28;20037;-63
2023/01/05 08:53:04;;;;;;;6.00;0.45;;;8.20;99.90;;;;;;5019922;28;20037;-63
2023/01/05 08:55:30;;;;;;;10.73;0.70;;;7.90;99.90;;;;;;5040615;28;20483;-63
2023/01/05 08:57:56;;;;;;;13.05;0.63;;;7.80;99.90;;;;;;5009355;28;20040;-64
2023/01/05 09:00:22;;;;;;;9.73;0.70;;;7.70;99.90;;;;;;5029624;28;20040;-64
2023/01/05 09:02:48;;;;;;;9.15;0.52;;;8.50;99.90;;;;;;5040859;28;20091;-64
2023/01/05 09:05:14;;;;;;;10.55;0.95;;;8.20;99.90;;;;;;5015838;28;20144;-64
2023/01/05 09:07:40;;;;;;;8.52;0.75;;;8.20;99.90;;;;;;5040173;28;20211;-64
2023/01/05 09:10:07;;;;;;;9.63;0.50;;;8.40;99.90;;;;;;5036971;28;20139;-65
2023/01/05 09:12:37;;;;;;;7.05;0.80;;;8.60;99.90;;;;;;5020754;28;20056;-64
2023/01/05 09:15:05;;;;;;;15.45;0.85;;;8.50;99.90;;;;;;5038619;28;20809;-63
2023/01/05 09:17:32;;;;;;;12.02;0.90;;;8.70;99.90;;;;;;5039039;28;20530;-64
2023/01/05 09:19:58;;;;;;;14.05;0.82;;;8.20;99.90;;;;;;5017866;28;20041;-64
2023/01/05 09:22:23;;;;;;;11.27;1.08;;;8.30;99.90;;;;;;5020744;28;20053;-63
2023/01/05 09:24:49;;;;;;;14.27;1.77;;;8.30;99.90;;;;;;5004081;28;20418;-64
2023/01/05 09:27:15;;;;;;;15.73;1.83;;;8.40;99.90;;;;;;5037927;28;20041;-63
2023/01/05 09:29:40;;;;;;;16.55;1.10;;;8.90;99.90;;;;;;5033619;28;20048;-63
2023/01/05 09:32:06;;;;;;;16.83;1.60;;;8.60;99.90;;;;;;5020598;28;20122;-64
2023/01/05 09:34:32;;;;;;;16.60;1.30;;;9.10;99.90;;;;;;5038723;28;20525;-64
2023/01/05 09:36:58;;;;;;;21.15;1.65;;;8.70;99.90;;;;;;5039305;28;20124;-64
2023/01/05 09:39:24;;;;;;;18.85;1.63;;;9.00;99.90;;;;;;5037481;28;20061;-62
2023/01/05 09:41:53;;;;;;;29.20;2.38;;;8.80;99.90;;;;;;5039076;28;20069;-63
2023/01/05 09:44:31;;;;;;;20.38;2.40;;;8.70;99.90;;;;;;5004118;28;20115;-64
2023/01/05 09:47:23;;;;;;;22.33;2.00;;;9.20;99.90;;;;;;5039209;28;20093;-63
2023/01/05 09:49:49;;;;;;;28.17;2.72;;;9.20;99.90;;;;;;4979128;28;21303;-64
2023/01/05 09:52:20;;;;;;;25.13;1.92;;;8.90;99.90;;;;;;5020536;28;20044;-64
2023/01/05 09:54:45;;;;;;;24.70;2.35;;;8.90;99.90;;;;;;5038321;28;20125;-64
2023/01/05 09:57:25;;;;;;;26.35;3.30;;;9.30;99.90;;;;;;5019470;28;20418;-63
2023/01/05 09:59:55;;;;;;;24.25;2.70;;;9.30;99.90;;;;;;5019954;28;20049;-64
2023/01/05 10:02:23;;;;;;;22.65;2.28;;;9.40;99.90;;;;;;5038836;28;20670;-63
2023/01/05 10:04:51;;;;;;;16.25;1.80;;;9.10;99.90;;;;;;5020412;28;20416;-65
2023/01/05 10:07:28;;;;;;;16.67;1.67;;;9.50;99.90;;;;;;5038594;28;20467;-64
2023/01/05 10:09:59;;;;;;;18.13;1.63;;;9.10;99.90;;;;;;5035940;28;20043;-64
2023/01/05 10:13:07;;;;;;;18.75;1.80;;;9.30;99.90;;;;;;5037308;28;20057;-64
2023/01/05 10:15:47;;;;;;;24.30;2.13;;;9.40;99.90;;;;;;5036946;28;20679;-65
2023/01/05 10:18:16;;;;;;;15.38;1.40;;;9.40;99.90;;;;;;5037618;28;20144;-65
2023/01/05 10:20:55;;;;;;;12.93;1.30;;;9.90;99.90;;;;;;5038650;28;20277;-64
2023/01/05 10:23:35;;;;;;;20.70;2.05;;;10.60;99.90;;;;;;5040996;28;20506;-65
2023/01/05 10:26:10;;;;;;;15.75;1.60;;;10.80;99.90;;;;;;5041822;28;20055;-64
2023/01/05 10:28:45;;;;;;;11.70;1.35;;;10.90;99.90;;;;;;5040678;28;20037;-64
2023/01/05 10:31:34;;;;;;;14.90;0.93;;;11.10;99.90;;;;;;5022722;28;20056;-64
2023/01/05 10:34:16;;;;;;;14.90;1.35;;;11.30;99.90;;;;;;5040980;28;20037;-64
2023/01/05 10:36:57;;;;;;;13.40;1.00;;;11.50;99.90;;;;;;5022773;28;20048;-65
2023/01/05 10:39:35;;;;;;;12.38;1.00;;;11.60;99.90;;;;;;5039906;28;20039;-65
2023/01/05 10:42:44;;;;;;;11.07;0.82;;;11.60;99.90;;;;;;5023186;28;20049;-65
2023/01/05 10:45:14;;;;;;;13.73;1.15;;;11.60;99.90;;;;;;4979271;28;20055;-65
2023/01/05 10:47:40;;;;;;;14.27;1.08;;;11.60;99.90;;;;;;5021428;28;20032;-64
2023/01/05 10:50:26;;;;;;;10.25;0.60;;;11.80;99.90;;;;;;5040052;28;20048;-64
2023/01/05 10:52:53;;;;;;;12.57;0.82;;;12.10;1.00;;;;;;5038600;28;20385;-64
2023/01/05 10:55:20;;;;;;;10.60;0.90;;;11.90;99.40;;;;;;5040731;28;20221;-65
2023/01/05 10:57:46;;;;;;;12.63;0.98;;;12.10;1.00;;;;;;5022135;28;20041;-65
2023/01/05 11:00:16;;;;;;;11.77;0.65;;;12.20;93.40;;;;;;5038851;28;20041;-65
2023/01/05 11:02:57;;;;;;;12.80;1.17;;;12.30;5.90;;;;;;5022540;28;20118;-64
2023/01/05 11:05:29;;;;;;;11.82;0.85;;;12.30;99.90;;;;;;5023636;28;20048;-62
2023/01/05 11:07:57;;;;;;;9.88;0.70;;;12.10;99.90;;;;;;5021173;28;20120;-62
2023/01/05 11:10:38;;;;;;;10.35;0.63;;;12.20;1.00;;;;;;5026562;28;20055;-64
2023/01/05 11:13:06;;;;;;;8.35;0.50;;;12.00;99.90;;;;;;5039634;28;20124;-63
2023/01/05 11:15:39;;;;;;;8.75;0.85;;;12.00;99.90;;;;;;5019737;28;20044;-63
2023/01/05 11:18:06;;;;;;;10.90;1.00;;;12.10;99.90;;;;;;5040051;28;21020;-63
2023/01/05 11:20:32;;;;;;;11.25;0.52;;;12.10;1.00;;;;;;5020246;28;20099;-63
2023/01/05 11:22:58;;;;;;;10.20;0.47;;;12.30;1.00;;;;;;5010411;28;20487;-62
2023/01/05 11:25:27;;;;;;;9.23;0.55;;;12.10;99.90;;;;;;5019593;28;20074;-64
2023/01/05 11:28:15;;;;;;;13.55;0.90;;;11.40;99.90;;;;;;5020805;28;20116;-65
2023/01/05 11:31:00;;;;;;;13.98;0.75;;;11.00;99.90;;;;;;5021019;28;20094;-63
2023/01/05 11:33:28;;;;;;;13.63;1.02;;;10.60;99.90;;;;;;5020309;28;20084;-65
2023/01/05 11:35:56;;;;;;;6.75;0.40;;;10.40;99.90;;;;;;5039889;28;20041;-64
2023/01/05 11:38:31;;;;;;;8.98;0.70;;;10.40;99.90;;;;;;5022098;28;20391;-64
2023/01/05 11:40:59;;;;;;;10.98;0.85;;;10.30;99.90;;;;;;5022321;28;20444;-65
2023/01/05 11:43:27;;;;;;;11.13;0.70;;;10.20;1.00;;;;;;5020204;28;20052;-64
2023/01/05 11:45:56;;;;;;;11.25;1.13;;;10.10;1.00;;;;;;5020703;28;20190;-65
2023/01/05 11:48:27;;;;;;;8.55;0.70;;;10.00;1.00;;;;;;5021391;28;20119;-65
2023/01/05 11:50:55;;;;;;;9.65;0.68;;;9.90;1.00;;;;;;5024289;28;20049;-64
2023/01/05 11:53:31;;;;;;;12.05;0.80;;;10.00;1.00;;;;;;5042860;28;20473;-64
2023/01/05 11:56:21;;;;;;;11.68;0.90;;;9.80;99.90;;;;;;5042477;28;20495;-65
2023/01/05 11:58:55;;;;;;;14.00;1.02;;;9.90;1.00;;;;;;5041520;28;20087;-65
2023/01/05 12:01:43;;;;;;;13.18;0.93;;;9.90;1.00;;;;;;5021321;28;20491;-65
2023/01/05 12:04:48;;;;;;;14.80;1.08;;;9.90;1.00;;;;;;5021485;28;20077;-64
2023/01/05 12:07:25;;;;;;;11.13;0.70;;;9.70;99.90;;;;;;4979811;28;20128;-62
2023/01/05 12:10:11;;;;;;;8.57;0.63;;;9.80;1.00;;;;;;5040759;28;20080;-62
2023/01/05 12:13:12;;;;;;;10.02;0.93;;;9.60;1.00;;;;;;5021869;28;20079;-63
2023/01/05 12:15:50;;;;;;;13.27;1.40;;;9.60;1.00;;;;;;5032853;28;20091;-65
2023/01/05 12:19:14;;;;;;;13.98;1.10;;;9.70;1.00;;;;;;5038165;28;20455;-65
2023/01/05 12:22:06;;;;;;;15.85;1.40;;;9.60;1.00;;;;;;4951402;28;20061;-63
2023/01/05 12:25:09;;;;;;;12.98;1.10;;;9.60;22.60;;;;;;5041044;28;20182;-65
2023/01/05 12:27:56;;;;;;;18.58;1.65;;;9.60;40.50;;;;;;5039365;28;20182;-63
2023/01/05 12:30:38;;;;;;;13.10;1.25;;;9.40;93.70;;;;;;5040098;28;20140;-62
2023/01/05 12:33:23;;;;;;;16.30;1.88;;;9.40;99.90;;;;;;5040012;28;20553;-64
2023/01/05 12:36:12;;;;;;;18.63;1.70;;;9.50;99.90;;;;;;5038271;28;20041;-64
2023/01/05 12:39:21;;;;;;;19.02;2.67;;;9.40;99.90;;;;;;5038932;28;20040;-63
2023/01/05 12:42:16;;;;;;;22.38;2.42;;;9.50;99.90;;;;;;4970622;28;20053;-65
2023/01/05 12:45:11;;;;;;;17.52;1.50;;;9.60;99.90;;;;;;5021315;28;20139;-65
2023/01/05 12:47:53;;;;;;;14.95;1.75;;;9.40;99.90;;;;;;5020148;28;20041;-62
2023/01/05 12:50:19;;;;;;;18.80;1.77;;;9.50;99.90;;;;;;5038633;28;20418;-64
2023/01/05 12:52:50;;;;;;;18.10;1.30;;;9.50;99.90;;;;;;5026134;28;20040;-62
2023/01/05 12:55:38;;;;;;;14.13;1.60;;;9.60;99.90;;;;;;5019461;28;20045;-63
2023/01/05 12:58:14;;;;;;;17.95;1.73;;;9.50;99.90;;;;;;5004476;28;20045;-64
2023/01/05 13:00:44;;;;;;;13.90;1.58;;;9.60;99.90;;;;;;5021114;28;20065;-64
2023/01/05 13:03:43;;;;;;;15.77;1.05;;;9.40;99.90;;;;;;5040116;28;20045;-64
2023/01/05 13:06:17;;;;;;;12.35;0.98;;;9.60;99.90;;;;;;5031977;28;20139;-65
2023/01/05 13:08:55;;;;;;;14.90;0.95;;;9.60;99.90;;;;;;5038023;28;20040;-63
2023/01/05 13:11:29;;;;;;;14.30;1.30;;;9.50;99.90;;;;;;5036365;28;20118;-65
2023/01/05 13:14:14;;;;;;;14.70;1.52;;;9.60;99.90;;;;;;5039472;28;20041;-65
2023/01/05 13:16:58;;;;;;;12.82;1.08;;;9.70;99.90;;;;;;5020500;28;20041;-66
2023/01/05 13:19:33;;;;;;;8.50;0.70;;;9.70;99.90;;;;;;5037273;28;20563;-65
2023/01/05 13:22:04;;;;;;;12.73;1.52;;;9.70;99.90;;;;;;5009377;28;20053;-65
2023/01/05 13:24:33;;;;;;;14.23;1.00;;;9.70;99.90;;;;;;5010119;28;20162;-65
2023/01/05 13:27:01;;;;;;;12.15;1.27;;;9.60;99.90;;;;;;5018997;28;20128;-65
2023/01/05 13:29:31;;;;;;;12.02;1.17;;;9.70;99.90;;;;;;5020509;28;20041;-63
2023/01/05 13:32:21;;;;;;;16.15;1.25;;;9.70;99.90;;;;;;5039350;28;20041;-64
2023/01/05 13:35:08;;;;;;;9.90;0.98;;;9.60;99.90;;;;;;5020699;28;20124;-63
2023/01/05 13:37:42;;;;;;;14.48;1.08;;;9.60;99.90;;;;;;5037255;28;20036;-65
2023/01/05 13:40:19;;;;;;;15.00;1.70;;;9.60;99.90;;;;;;5037804;28;20048;-65